sensor_id;sensor_type;location;lat;lon;timestamp;pressure;altitude;pressure_sealevel;temperature;humidity
55263;BME280;41125;48.752;9.168;2023-05-07T00:00:21;96768.41;;;13.77;73.53
55263;BME280;41125;48.752;9.168;2023-05-07T00:00:53;96769.03;;;13.74;73.20
55263;BME280;41125;48.752;9.168;2023-05-07T00:01:25;96764.72;;;13.73;72.89
55263;BME280;41125;48.752;9.168;2023-05-07T00:01:57;96780.25;;;13.72;73.02
55263;BME280;41125;48.752;9.168;2023-05-07T00:02:28;96778.97;;;13.70;73.37
55263;BME280;41125;48.752;9.168;2023-05-07T00:03:00;96788.25;;;13.69;72.88
55263;BME280;41125;48.752;9.168;2023-05-07T00:03:32;96778.47;;;13.68;73.24
55263;BME280;41125;48.752;9.168;2023-05-07T00:04:05;96789.38;;;13.68;73.49
55263;BME280;41125;48.752;9.168;2023-05-07T00:04:38;96784.25;;;13.66;73.19
55263;BME280;41125;48.752;9.168;2023-05-07T00:05:09;96778.00;;;13.66;73.58
55263;BME280;41125;48.752;9.168;2023-05-07T00:05:41;96781.84;;;13.65;73.39
55263;BME280;41125;48.752;9.168;2023-05-07T00:06:12;96780.22;;;13.64;73.46
55263;BME280;41125;48.752;9.168;2023-05-07T00:06:43;96780.22;;;13.64;73.36
55263;BME280;41125;48.752;9.168;2023-05-07T00:07:15;96781.34;;;13.63;73.39
55263;BME280;41125;48.752;9.168;2023-05-07T00:07:47;96777.81;;;13.62;73.81
55263;BME280;41125;48.752;9.168;2023-05-07T00:08:19;96777.63;;;13.59;76.16
55263;BME280;41125;48.752;9.168;2023-05-07T00:08:51;96776.66;;;13.55;76.37
55263;BME280;41125;48.752;9.168;2023-05-07T00:09:22;96782.72;;;13.52;76.27
55263;BME280;41125;48.752;9.168;2023-05-07T00:09:53;96779.53;;;13.50;76.45
55263;BME280;41125;48.752;9.168;2023-05-07T00:10:26;96775.53;;;13.47;76.43
55263;BME280;41125;48.752;9.168;2023-05-07T00:10:57;96776.63;;;13.46;76.43
55263;BME280;41125;48.752;9.168;2023-05-07T00:11:28;96776.16;;;13.44;75.95
55263;BME280;41125;48.752;9.168;2023-05-07T00:11:59;96778.06;;;13.44;75.36
55263;BME280;41125;48.752;9.168;2023-05-07T00:12:31;96777.25;;;13.43;75.32
55263;BME280;41125;48.752;9.168;2023-05-07T00:13:04;96778.06;;;13.44;75.00
55263;BME280;41125;48.752;9.168;2023-05-07T00:13:35;96781.59;;;13.44;74.75
55263;BME280;41125;48.752;9.168;2023-05-07T00:14:07;96778.88;;;13.44;75.03
55263;BME280;41125;48.752;9.168;2023-05-07T00:14:38;96775.34;;;13.44;74.81
55263;BME280;41125;48.752;9.168;2023-05-07T00:15:10;96778.06;;;13.44;74.94
55263;BME280;41125;48.752;9.168;2023-05-07T00:15:41;96776.94;;;13.45;74.48
55263;BME280;41125;48.752;9.168;2023-05-07T00:16:12;96778.06;;;13.44;74.54
55263;BME280;41125;48.752;9.168;2023-05-07T00:16:44;96775.34;;;13.44;74.23
55263;BME280;41125;48.752;9.168;2023-05-07T00:17:15;96780.00;;;13.43;74.28
55263;BME280;41125;48.752;9.168;2023-05-07T00:17:46;96778.88;;;13.44;74.32
55263;BME280;41125;48.752;9.168;2023-05-07T00:18:17;96785.44;;;13.43;74.19
55263;BME280;41125;48.752;9.168;2023-05-07T00:18:52;96780.78;;;13.44;74.22
55263;BME280;41125;48.752;9.168;2023-05-07T00:19:24;96780.78;;;13.44;74.35
55263;BME280;41125;48.752;9.168;2023-05-07T00:19:57;96776.47;;;13.43;74.18
55263;BME280;41125;48.752;9.168;2023-05-07T00:20:29;96780.78;;;13.44;74.43
55263;BME280;41125;48.752;9.168;2023-05-07T00:21:00;96778.06;;;13.44;73.94
55263;BME280;41125;48.752;9.168;2023-05-07T00:21:31;96780.00;;;13.43;74.25
55263;BME280;41125;48.752;9.168;2023-05-07T00:23:09;96777.25;;;13.43;74.15
55263;BME280;41125;48.752;9.168;2023-05-07T00:23:40;96772.13;;;13.41;74.05
55263;BME280;41125;48.752;9.168;2023-05-07T00:24:11;96775.97;;;13.40;74.73
55263;BME280;41125;48.752;9.168;2023-05-07T00:24:42;96773.25;;;13.40;75.19
55263;BME280;41125;48.752;9.168;2023-05-07T00:25:14;96771.13;;;13.37;75.78
55263;BME280;41125;48.752;9.168;2023-05-07T00:25:46;96780.44;;;13.36;75.50
55263;BME280;41125;48.752;9.168;2023-05-07T00:26:18;96776.09;;;13.35;75.49
55263;BME280;41125;48.752;9.168;2023-05-07T00:26:49;96777.22;;;13.34;75.30
55263;BME280;41125;48.752;9.168;2023-05-07T00:27:21;96771.75;;;13.34;75.30
55263;BME280;41125;48.752;9.168;2023-05-07T00:27:52;96774.00;;;13.32;75.85
55263;BME280;41125;48.752;9.168;2023-05-07T00:28:24;96770.78;;;13.30;75.61
55263;BME280;41125;48.752;9.168;2023-05-07T00:28:56;96770.78;;;13.30;75.31
55263;BME280;41125;48.752;9.168;2023-05-07T00:29:27;96773.50;;;13.30;75.39
55263;BME280;41125;48.752;9.168;2023-05-07T00:29:58;96774.63;;;13.29;75.37
55263;BME280;41125;48.752;9.168;2023-05-07T00:30:29;96766.44;;;13.29;75.30
55263;BME280;41125;48.752;9.168;2023-05-07T00:31:00;96766.44;;;13.29;75.21
55263;BME280;41125;48.752;9.168;2023-05-07T00:31:33;96774.63;;;13.29;75.38
55263;BME280;41125;48.752;9.168;2023-05-07T00:32:04;96769.47;;;13.28;75.48
55263;BME280;41125;48.752;9.168;2023-05-07T00:32:36;96771.41;;;13.27;75.40
55263;BME280;41125;48.752;9.168;2023-05-07T00:33:07;96760.00;;;13.25;75.58
55263;BME280;41125;48.752;9.168;2023-05-07T00:33:38;96770.91;;;13.25;75.54
55263;BME280;41125;48.752;9.168;2023-05-07T00:34:10;96772.03;;;13.24;75.13
55263;BME280;41125;48.752;9.168;2023-05-07T00:34:41;96767.69;;;13.23;75.45
55263;BME280;41125;48.752;9.168;2023-05-07T00:35:12;96768.81;;;13.22;75.83
55263;BME280;41125;48.752;9.168;2023-05-07T00:35:47;96768.00;;;13.22;76.02
55263;BME280;41125;48.752;9.168;2023-05-07T00:36:18;96769.44;;;13.19;76.43
55263;BME280;41125;48.752;9.168;2023-05-07T00:36:49;96767.81;;;13.18;76.00
55263;BME280;41125;48.752;9.168;2023-05-07T00:37:20;96764.63;;;13.16;76.14
55263;BME280;41125;48.752;9.168;2023-05-07T00:37:52;96768.94;;;13.17;75.91
55263;BME280;41125;48.752;9.168;2023-05-07T00:38:23;96770.88;;;13.17;76.24
55263;BME280;41125;48.752;9.168;2023-05-07T00:38:59;96771.16;;;13.15;76.90
55263;BME280;41125;48.752;9.168;2023-05-07T00:39:33;96764.41;;;13.13;77.87
55263;BME280;41125;48.752;9.168;2023-05-07T00:40:05;96775.13;;;13.09;77.55
55263;BME280;41125;48.752;9.168;2023-05-07T00:40:38;96767.28;;;13.07;77.08
55263;BME280;41125;48.752;9.168;2023-05-07T00:41:09;96770.00;;;13.07;76.87
55263;BME280;41125;48.752;9.168;2023-05-07T00:41:40;96766.47;;;13.07;76.86
55263;BME280;41125;48.752;9.168;2023-05-07T00:42:12;96766.47;;;13.07;76.95
55263;BME280;41125;48.752;9.168;2023-05-07T00:42:43;96761.00;;;13.07;76.51
55263;BME280;41125;48.752;9.168;2023-05-07T00:43:17;96765.66;;;13.06;76.75
55263;BME280;41125;48.752;9.168;2023-05-07T00:43:48;96763.75;;;13.07;76.96
55263;BME280;41125;48.752;9.168;2023-05-07T00:44:22;96769.19;;;13.07;76.67
55263;BME280;41125;48.752;9.168;2023-05-07T00:44:54;96760.22;;;13.06;77.03
55263;BME280;41125;48.752;9.168;2023-05-07T00:45:29;96763.75;;;13.07;77.04
55263;BME280;41125;48.752;9.168;2023-05-07T00:46:01;96761.00;;;13.07;76.92
55263;BME280;41125;48.752;9.168;2023-05-07T00:46:32;96768.69;;;13.05;76.77
55263;BME280;41125;48.752;9.168;2023-05-07T00:47:05;96757.81;;;13.05;76.47
55263;BME280;41125;48.752;9.168;2023-05-07T00:47:37;96757.00;;;13.04;76.82
55263;BME280;41125;48.752;9.168;2023-05-07T00:48:08;96757.81;;;13.05;76.57
55263;BME280;41125;48.752;9.168;2023-05-07T00:48:40;96752.34;;;13.05;76.44
55263;BME280;41125;48.752;9.168;2023-05-07T00:49:11;96759.41;;;13.06;76.48
55263;BME280;41125;48.752;9.168;2023-05-07T00:49:44;96746.91;;;13.05;76.61
55263;BME280;41125;48.752;9.168;2023-05-07T00:50:16;96746.91;;;13.05;76.23
55263;BME280;41125;48.752;9.168;2023-05-07T00:50:48;96753.97;;;13.06;76.16
55263;BME280;41125;48.752;9.168;2023-05-07T00:51:20;96753.97;;;13.06;76.05
55263;BME280;41125;48.752;9.168;2023-05-07T00:51:51;96755.56;;;13.07;76.20
55263;BME280;41125;48.752;9.168;2023-05-07T00:52:25;96750.12;;;13.07;76.03
55263;BME280;41125;48.752;9.168;2023-05-07T00:54:05;96754.75;;;13.06;75.86
55263;BME280;41125;48.752;9.168;2023-05-07T00:54:37;96749.31;;;13.06;76.02
55263;BME280;41125;48.752;9.168;2023-05-07T00:55:10;96753.97;;;13.06;75.89
55263;BME280;41125;48.752;9.168;2023-05-07T00:55:46;96758.28;;;13.07;76.11
55263;BME280;41125;48.752;9.168;2023-05-07T00:56:17;96754.75;;;13.06;75.91
55263;BME280;41125;48.752;9.168;2023-05-07T00:56:49;96755.56;;;13.07;76.01
55263;BME280;41125;48.752;9.168;2023-05-07T00:57:21;96753.97;;;13.06;76.02
55263;BME280;41125;48.752;9.168;2023-05-07T00:57:53;96760.22;;;13.06;75.98
55263;BME280;41125;48.752;9.168;2023-05-07T00:58:25;96750.75;;;13.04;76.16
55263;BME280;41125;48.752;9.168;2023-05-07T00:58:56;96750.75;;;13.04;76.07
55263;BME280;41125;48.752;9.168;2023-05-07T00:59:27;96749.13;;;13.03;76.48
55263;BME280;41125;48.752;9.168;2023-05-07T01:00:02;96751.84;;;13.03;77.09
55263;BME280;41125;48.752;9.168;2023-05-07T01:00:37;96756.81;;;13.01;76.96
55263;BME280;41125;48.752;9.168;2023-05-07T01:01:08;96746.22;;;12.99;76.44
55263;BME280;41125;48.752;9.168;2023-05-07T01:01:41;96747.34;;;12.98;76.89
55263;BME280;41125;48.752;9.168;2023-05-07T01:02:13;96758.22;;;12.98;78.22
55263;BME280;41125;48.752;9.168;2023-05-07T01:02:44;96747.97;;;12.95;78.84
55263;BME280;41125;48.752;9.168;2023-05-07T01:03:15;96749.38;;;12.93;78.67
55263;BME280;41125;48.752;9.168;2023-05-07T01:03:47;96748.09;;;12.90;77.98
55263;BME280;41125;48.752;9.168;2023-05-07T01:04:18;96746.16;;;12.91;77.75
55263;BME280;41125;48.752;9.168;2023-05-07T01:04:49;96745.38;;;12.90;77.97
55263;BME280;41125;48.752;9.168;2023-05-07T01:05:22;96756.25;;;12.90;77.88
55263;BME280;41125;48.752;9.168;2023-05-07T01:05:55;96750.00;;;12.90;77.75
55263;BME280;41125;48.752;9.168;2023-05-07T01:06:29;96751.12;;;12.89;77.67
55263;BME280;41125;48.752;9.168;2023-05-07T01:07:01;96750.00;;;12.90;77.79
55263;BME280;41125;48.752;9.168;2023-05-07T01:07:34;96750.00;;;12.90;77.68
55263;BME280;41125;48.752;9.168;2023-05-07T01:08:07;96744.56;;;12.90;77.85
55263;BME280;41125;48.752;9.168;2023-05-07T01:08:40;96752.72;;;12.90;77.70
55263;BME280;41125;48.752;9.168;2023-05-07T01:09:13;96752.72;;;12.90;77.56
55263;BME280;41125;48.752;9.168;2023-05-07T01:09:44;96750.00;;;12.90;77.50
55263;BME280;41125;48.752;9.168;2023-05-07T01:10:16;96759.28;;;12.89;77.86
55263;BME280;41125;48.752;9.168;2023-05-07T01:10:48;96753.84;;;12.89;77.70
55263;BME280;41125;48.752;9.168;2023-05-07T01:11:19;96751.12;;;12.89;77.97
55263;BME280;41125;48.752;9.168;2023-05-07T01:11:52;96754.16;;;12.87;78.06
55263;BME280;41125;48.752;9.168;2023-05-07T01:12:24;96750.62;;;12.87;77.78
55263;BME280;41125;48.752;9.168;2023-05-07T01:12:57;96754.47;;;12.86;77.58
55263;BME280;41125;48.752;9.168;2023-05-07T01:13:30;96756.06;;;12.87;77.68
55263;BME280;41125;48.752;9.168;2023-05-07T01:14:01;96756.06;;;12.87;78.02
55263;BME280;41125;48.752;9.168;2023-05-07T01:14:33;96751.72;;;12.86;77.73
55263;BME280;41125;48.752;9.168;2023-05-07T01:15:07;96757.19;;;12.86;77.75
55263;BME280;41125;48.752;9.168;2023-05-07T01:15:39;96749.00;;;12.86;78.00
55263;BME280;41125;48.752;9.168;2023-05-07T01:16:12;96758.28;;;12.85;77.98
55263;BME280;41125;48.752;9.168;2023-05-07T01:16:43;96751.25;;;12.84;78.05
55263;BME280;41125;48.752;9.168;2023-05-07T01:17:15;96751.25;;;12.84;77.98
55263;BME280;41125;48.752;9.168;2023-05-07T01:17:46;96755.06;;;12.83;77.79
55263;BME280;41125;48.752;9.168;2023-05-07T01:18:18;96755.06;;;12.83;78.03
55263;BME280;41125;48.752;9.168;2023-05-07T01:18:50;96757.00;;;12.82;78.32
55263;BME280;41125;48.752;9.168;2023-05-07T01:19:22;96749.16;;;12.81;77.89
55263;BME280;41125;48.752;9.168;2023-05-07T01:19:53;96746.44;;;12.81;77.84
55263;BME280;41125;48.752;9.168;2023-05-07T01:20:24;96748.06;;;12.82;78.14
55263;BME280;41125;48.752;9.168;2023-05-07T01:20:58;96752.69;;;12.81;78.20
55263;BME280;41125;48.752;9.168;2023-05-07T01:21:33;96747.25;;;12.81;77.88
55263;BME280;41125;48.752;9.168;2023-05-07T01:22:10;96748.06;;;12.82;77.80
55263;BME280;41125;48.752;9.168;2023-05-07T01:22:45;96750.44;;;12.83;78.06
55263;BME280;41125;48.752;9.168;2023-05-07T01:23:18;96751.25;;;12.84;77.58
55263;BME280;41125;48.752;9.168;2023-05-07T01:23:49;96745.78;;;12.84;77.92
55263;BME280;41125;48.752;9.168;2023-05-07T01:24:21;96748.53;;;12.84;77.60
55263;BME280;41125;48.752;9.168;2023-05-07T01:24:53;96746.91;;;12.83;77.75
55263;BME280;41125;48.752;9.168;2023-05-07T01:25:27;96741.97;;;12.85;77.68
55263;BME280;41125;48.752;9.168;2023-05-07T01:25:59;96747.41;;;12.85;77.67
55263;BME280;41125;48.752;9.168;2023-05-07T01:26:30;96749.00;;;12.86;77.57
55263;BME280;41125;48.752;9.168;2023-05-07T01:27:02;96739.22;;;12.85;77.59
55263;BME280;41125;48.752;9.168;2023-05-07T01:27:34;96743.56;;;12.86;77.58
55263;BME280;41125;48.752;9.168;2023-05-07T01:28:07;96745.19;;;12.87;77.47
55263;BME280;41125;48.752;9.168;2023-05-07T01:28:38;96745.97;;;12.87;77.42
55263;BME280;41125;48.752;9.168;2023-05-07T01:29:09;96748.41;;;12.89;77.15
55263;BME280;41125;48.752;9.168;2023-05-07T01:29:41;96747.59;;;12.88;77.11
55263;BME280;41125;48.752;9.168;2023-05-07T01:30:13;96748.41;;;12.89;77.35
55263;BME280;41125;48.752;9.168;2023-05-07T01:30:48;96742.94;;;12.89;77.20
55263;BME280;41125;48.752;9.168;2023-05-07T01:31:21;96748.09;;;12.90;77.08
55263;BME280;41125;48.752;9.168;2023-05-07T01:31:54;96742.62;;;12.90;77.24
55263;BME280;41125;48.752;9.168;2023-05-07T01:32:45;96744.56;;;12.90;77.11
55263;BME280;41125;48.752;9.168;2023-05-07T01:33:19;96744.56;;;12.90;77.02
55263;BME280;41125;48.752;9.168;2023-05-07T01:33:52;96746.97;;;12.91;77.07
55263;BME280;41125;48.752;9.168;2023-05-07T01:34:31;96743.12;;;12.92;77.02
55263;BME280;41125;48.752;9.168;2023-05-07T01:35:06;96748.56;;;12.92;76.78
55263;BME280;41125;48.752;9.168;2023-05-07T01:35:42;96743.12;;;12.92;76.86
55263;BME280;41125;48.752;9.168;2023-05-07T01:36:15;96743.94;;;12.93;76.95
55263;BME280;41125;48.752;9.168;2023-05-07T01:36:48;96743.94;;;12.93;76.79
55263;BME280;41125;48.752;9.168;2023-05-07T01:37:20;96741.22;;;12.93;76.53
55263;BME280;41125;48.752;9.168;2023-05-07T01:37:53;96745.53;;;12.94;76.93
55263;BME280;41125;48.752;9.168;2023-05-07T01:38:26;96740.91;;;12.94;76.54
55263;BME280;41125;48.752;9.168;2023-05-07T01:38:59;96740.09;;;12.94;76.71
55263;BME280;41125;48.752;9.168;2023-05-07T01:39:33;96734.66;;;12.94;76.71
55263;BME280;41125;48.752;9.168;2023-05-07T01:40:05;96739.28;;;12.93;76.50
55263;BME280;41125;48.752;9.168;2023-05-07T01:40:38;96740.09;;;12.94;76.69
55263;BME280;41125;48.752;9.168;2023-05-07T01:41:12;96746.66;;;12.93;77.89
55263;BME280;41125;48.752;9.168;2023-05-07T01:41:44;96741.34;;;12.88;77.76
55263;BME280;41125;48.752;9.168;2023-05-07T01:42:16;96749.00;;;12.86;77.41
55263;BME280;41125;48.752;9.168;2023-05-07T01:42:48;96736.50;;;12.85;77.56
55263;BME280;41125;48.752;9.168;2023-05-07T01:43:19;96750.44;;;12.83;78.01
55263;BME280;41125;48.752;9.168;2023-05-07T01:43:52;96744.19;;;12.83;77.87
55263;BME280;41125;48.752;9.168;2023-05-07T01:44:28;96747.25;;;12.81;77.25
55263;BME280;41125;48.752;9.168;2023-05-07T01:45:00;96749.16;;;12.81;77.69
55263;BME280;41125;48.752;9.168;2023-05-07T01:45:31;96742.59;;;12.82;77.80
55263;BME280;41125;48.752;9.168;2023-05-07T01:46:03;96746.91;;;12.83;77.53
55263;BME280;41125;48.752;9.168;2023-05-07T01:46:35;96749.16;;;12.81;78.23
55263;BME280;41125;48.752;9.168;2023-05-07T01:47:07;96744.03;;;12.79;78.14
55263;BME280;41125;48.752;9.168;2023-05-07T01:47:43;96736.16;;;12.78;77.76
55263;BME280;41125;48.752;9.168;2023-05-07T01:48:15;96742.72;;;12.77;77.98
55263;BME280;41125;48.752;9.168;2023-05-07T01:48:47;96734.56;;;12.77;78.08
55263;BME280;41125;48.752;9.168;2023-05-07T01:49:19;96740.00;;;12.77;77.74
55263;BME280;41125;48.752;9.168;2023-05-07T01:49:51;96738.41;;;12.75;78.36
55263;BME280;41125;48.752;9.168;2023-05-07T01:50:23;96741.44;;;12.74;79.04
55263;BME280;41125;48.752;9.168;2023-05-07T01:50:56;96742.03;;;12.71;78.59
55263;BME280;41125;48.752;9.168;2023-05-07T01:51:27;96739.31;;;12.71;78.12
55263;BME280;41125;48.752;9.168;2023-05-07T01:51:59;96735.00;;;12.70;78.28
55263;BME280;41125;48.752;9.168;2023-05-07T01:52:31;96739.63;;;12.69;78.09
55263;BME280;41125;48.752;9.168;2023-05-07T01:53:02;96734.19;;;12.69;78.08
55263;BME280;41125;48.752;9.168;2023-05-07T01:53:37;96739.31;;;12.71;78.45
55263;BME280;41125;48.752;9.168;2023-05-07T01:54:09;96737.84;;;12.65;79.52
55263;BME280;41125;48.752;9.168;2023-05-07T01:54:46;96734.25;;;12.56;80.39
55263;BME280;41125;48.752;9.168;2023-05-07T01:55:18;96738.50;;;12.48;80.50
55263;BME280;41125;48.752;9.168;2023-05-07T01:55:50;96737.69;;;12.48;80.09
55263;BME280;41125;48.752;9.168;2023-05-07T01:56:21;96733.84;;;12.49;80.01
55263;BME280;41125;48.752;9.168;2023-05-07T01:56:53;96736.28;;;12.50;79.52
55263;BME280;41125;48.752;9.168;2023-05-07T01:57:24;96734.03;;;12.52;79.60
55263;BME280;41125;48.752;9.168;2023-05-07T01:57:56;96736.47;;;12.54;79.21
55263;BME280;41125;48.752;9.168;2023-05-07T01:58:27;96736.16;;;12.55;79.06
55263;BME280;41125;48.752;9.168;2023-05-07T01:58:58;96737.75;;;12.56;79.03
55263;BME280;41125;48.752;9.168;2023-05-07T01:59:29;96739.37;;;12.57;78.88
55263;BME280;41125;48.752;9.168;2023-05-07T02:00:01;96738.25;;;12.58;78.37
55263;BME280;41125;48.752;9.168;2023-05-07T02:00:37;96739.87;;;12.59;78.46
55263;BME280;41125;48.752;9.168;2023-05-07T02:01:08;96737.66;;;12.61;78.06
55263;BME280;41125;48.752;9.168;2023-05-07T02:01:39;96746.63;;;12.62;78.32
55263;BME280;41125;48.752;9.168;2023-05-07T02:02:10;96744.69;;;12.62;77.85
55263;BME280;41125;48.752;9.168;2023-05-07T02:02:42;96739.25;;;12.62;77.84
55263;BME280;41125;48.752;9.168;2023-05-07T02:03:15;96744.38;;;12.64;77.81
55263;BME280;41125;48.752;9.168;2023-05-07T02:03:49;96738.94;;;12.64;78.02
55263;BME280;41125;48.752;9.168;2023-05-07T02:04:20;96738.63;;;12.65;77.53
55263;BME280;41125;48.752;9.168;2023-05-07T02:04:52;96735.91;;;12.65;77.91
55263;BME280;41125;48.752;9.168;2023-05-07T02:05:23;96741.38;;;12.65;77.47
55263;BME280;41125;48.752;9.168;2023-05-07T02:05:54;96738.63;;;12.65;77.49
55263;BME280;41125;48.752;9.168;2023-05-07T02:06:26;96745.69;;;12.66;77.57
55263;BME280;41125;48.752;9.168;2023-05-07T02:06:57;96742.97;;;12.66;77.58
55263;BME280;41125;48.752;9.168;2023-05-07T02:07:28;96744.56;;;12.67;77.44
55263;BME280;41125;48.752;9.168;2023-05-07T02:07:59;96744.56;;;12.67;77.42
55263;BME280;41125;48.752;9.168;2023-05-07T02:08:31;96744.56;;;12.67;77.26
55263;BME280;41125;48.752;9.168;2023-05-07T02:10:10;96743.47;;;12.68;77.68
55263;BME280;41125;48.752;9.168;2023-05-07T02:10:41;96742.66;;;12.68;77.62
55263;BME280;41125;48.752;9.168;2023-05-07T02:11:13;96746.19;;;12.68;77.45
55263;BME280;41125;48.752;9.168;2023-05-07T02:11:44;96738.03;;;12.68;77.45
55263;BME280;41125;48.752;9.168;2023-05-07T02:12:15;96745.06;;;12.69;77.35
55263;BME280;41125;48.752;9.168;2023-05-07T02:12:47;96741.56;;;12.69;77.40
55263;BME280;41125;48.752;9.168;2023-05-07T02:13:18;96743.16;;;12.70;77.68
55263;BME280;41125;48.752;9.168;2023-05-07T02:13:50;96746.69;;;12.70;77.41
55263;BME280;41125;48.752;9.168;2023-05-07T02:14:25;96742.03;;;12.71;77.52
55263;BME280;41125;48.752;9.168;2023-05-07T02:14:57;96738.53;;;12.70;77.52
55263;BME280;41125;48.752;9.168;2023-05-07T02:15:28;96744.47;;;12.72;77.58
55263;BME280;41125;48.752;9.168;2023-05-07T02:15:59;96746.06;;;12.73;77.23
55263;BME280;41125;48.752;9.168;2023-05-07T02:16:30;96747.69;;;12.74;77.35
55263;BME280;41125;48.752;9.168;2023-05-07T02:17:01;96747.69;;;12.74;77.33
55263;BME280;41125;48.752;9.168;2023-05-07T02:17:32;96746.87;;;12.74;77.29
55263;BME280;41125;48.752;9.168;2023-05-07T02:18:08;96742.22;;;12.74;77.38
55263;BME280;41125;48.752;9.168;2023-05-07T02:18:40;96745.75;;;12.75;77.59
55263;BME280;41125;48.752;9.168;2023-05-07T02:19:12;96746.56;;;12.75;77.60
55263;BME280;41125;48.752;9.168;2023-05-07T02:19:43;96747.69;;;12.74;77.38
55263;BME280;41125;48.752;9.168;2023-05-07T02:20:14;96743.84;;;12.75;77.62
55263;BME280;41125;48.752;9.168;2023-05-07T02:20:46;96746.56;;;12.75;77.75
55263;BME280;41125;48.752;9.168;2023-05-07T02:21:17;96744.66;;;12.76;77.56
55263;BME280;41125;48.752;9.168;2023-05-07T02:21:49;96742.72;;;12.77;77.94
55263;BME280;41125;48.752;9.168;2023-05-07T02:22:21;96747.06;;;12.78;77.56
55263;BME280;41125;48.752;9.168;2023-05-07T02:22:53;96740.00;;;12.77;77.62
55263;BME280;41125;48.752;9.168;2023-05-07T02:23:24;96748.19;;;12.77;77.73
55263;BME280;41125;48.752;9.168;2023-05-07T02:23:57;96741.63;;;12.78;77.68
55263;BME280;41125;48.752;9.168;2023-05-07T02:25:35;96749.78;;;12.78;77.96
55263;BME280;41125;48.752;9.168;2023-05-07T02:26:06;96753.00;;;12.80;78.27
55263;BME280;41125;48.752;9.168;2023-05-07T02:26:39;96750.28;;;12.80;77.96
55263;BME280;41125;48.752;9.168;2023-05-07T02:27:10;96753.00;;;12.80;78.08
55263;BME280;41125;48.752;9.168;2023-05-07T02:27:46;96744.03;;;12.79;78.16
55263;BME280;41125;48.752;9.168;2023-05-07T02:28:18;96750.28;;;12.80;78.13
55263;BME280;41125;48.752;9.168;2023-05-07T02:28:49;96750.28;;;12.80;78.12
55263;BME280;41125;48.752;9.168;2023-05-07T02:29:20;96753.00;;;12.80;77.97
55263;BME280;41125;48.752;9.168;2023-05-07T02:29:51;96751.09;;;12.80;77.89
55263;BME280;41125;48.752;9.168;2023-05-07T02:30:23;96751.88;;;12.81;77.95
55263;BME280;41125;48.752;9.168;2023-05-07T02:30:54;96756.22;;;12.82;77.95
55263;BME280;41125;48.752;9.168;2023-05-07T02:31:25;96753.50;;;12.82;78.16
55263;BME280;41125;48.752;9.168;2023-05-07T02:31:57;96753.50;;;12.82;78.18
55263;BME280;41125;48.752;9.168;2023-05-07T02:32:28;96745.31;;;12.82;77.79
55263;BME280;41125;48.752;9.168;2023-05-07T02:32:59;96750.44;;;12.83;78.00
55263;BME280;41125;48.752;9.168;2023-05-07T02:33:31;96744.19;;;12.83;77.83
55263;BME280;41125;48.752;9.168;2023-05-07T02:34:03;96746.91;;;12.83;78.01
55263;BME280;41125;48.752;9.168;2023-05-07T02:34:34;96745.00;;;12.83;77.97
55263;BME280;41125;48.752;9.168;2023-05-07T02:35:06;96745.78;;;12.84;77.77
55263;BME280;41125;48.752;9.168;2023-05-07T02:35:38;96745.78;;;12.84;77.90
55263;BME280;41125;48.752;9.168;2023-05-07T02:36:10;96746.59;;;12.84;78.07
55263;BME280;41125;48.752;9.168;2023-05-07T02:36:42;96743.06;;;12.84;77.66
55263;BME280;41125;48.752;9.168;2023-05-07T02:37:13;96745.00;;;12.83;78.07
55263;BME280;41125;48.752;9.168;2023-05-07T02:37:44;96741.47;;;12.83;77.84
55263;BME280;41125;48.752;9.168;2023-05-07T02:38:16;96744.19;;;12.83;78.18
55263;BME280;41125;48.752;9.168;2023-05-07T02:38:47;96745.31;;;12.82;77.89
55263;BME280;41125;48.752;9.168;2023-05-07T02:39:18;96743.38;;;12.82;78.42
55263;BME280;41125;48.752;9.168;2023-05-07T02:39:49;96745.31;;;12.82;78.31
55263;BME280;41125;48.752;9.168;2023-05-07T02:40:21;96745.00;;;12.83;78.37
55263;BME280;41125;48.752;9.168;2023-05-07T02:40:56;96743.38;;;12.82;78.37
55263;BME280;41125;48.752;9.168;2023-05-07T02:41:28;96743.38;;;12.82;78.29
55263;BME280;41125;48.752;9.168;2023-05-07T02:42:00;96738.75;;;12.83;78.12
55263;BME280;41125;48.752;9.168;2023-05-07T02:42:32;96749.62;;;12.83;78.17
55263;BME280;41125;48.752;9.168;2023-05-07T02:43:04;96744.19;;;12.83;78.22
55263;BME280;41125;48.752;9.168;2023-05-07T02:43:39;96737.16;;;12.82;78.18
55263;BME280;41125;48.752;9.168;2023-05-07T02:44:11;96738.75;;;12.83;78.51
55263;BME280;41125;48.752;9.168;2023-05-07T02:44:43;96746.91;;;12.83;78.51
55263;BME280;41125;48.752;9.168;2023-05-07T02:45:15;96747.25;;;12.81;78.53
55263;BME280;41125;48.752;9.168;2023-05-07T02:45:46;96742.91;;;12.80;78.62
55263;BME280;41125;48.752;9.168;2023-05-07T02:46:18;96739.37;;;12.80;78.63
55263;BME280;41125;48.752;9.168;2023-05-07T02:46:49;96746.44;;;12.81;78.57
55263;BME280;41125;48.752;9.168;2023-05-07T02:47:20;96741.00;;;12.81;78.45
55263;BME280;41125;48.752;9.168;2023-05-07T02:47:51;96746.44;;;12.81;78.49
55263;BME280;41125;48.752;9.168;2023-05-07T02:48:23;96740.19;;;12.80;78.23
55263;BME280;41125;48.752;9.168;2023-05-07T02:48:56;96751.09;;;12.80;78.33
55263;BME280;41125;48.752;9.168;2023-05-07T02:49:27;96744.03;;;12.79;78.16
55263;BME280;41125;48.752;9.168;2023-05-07T02:49:58;96744.84;;;12.80;78.38
55263;BME280;41125;48.752;9.168;2023-05-07T02:50:29;96744.03;;;12.79;78.37
55263;BME280;41125;48.752;9.168;2023-05-07T02:51:01;96743.22;;;12.79;78.12
55263;BME280;41125;48.752;9.168;2023-05-07T02:51:33;96744.03;;;12.79;77.89
55263;BME280;41125;48.752;9.168;2023-05-07T02:52:05;96741.63;;;12.78;78.11
55263;BME280;41125;48.752;9.168;2023-05-07T02:52:36;96742.41;;;12.78;77.79
55263;BME280;41125;48.752;9.168;2023-05-07T02:53:07;96745.16;;;12.78;77.82
55263;BME280;41125;48.752;9.168;2023-05-07T02:53:39;96741.63;;;12.78;77.94
55263;BME280;41125;48.752;9.168;2023-05-07T02:54:10;96740.00;;;12.77;77.92
55263;BME280;41125;48.752;9.168;2023-05-07T02:54:43;96740.81;;;12.77;77.81